Time;durP1;ratioP1;P1;durP2;ratioP2;P2;SDS_P1;SDS_P2;PMS_P1;PMS_P2;Temp;Humidity;BMP_temperature;BMP_pressure;BME280_temperature;BME280_humidity;BME280_pressure;Samples;Min_cycle;Max_cycle;Signal;HPM_P1;HPM_P2
2023/04/03 00:00:50;;;;;;;0.97;0.63;;;6.10;99.90;;;;;;5034825;28;20450;-50
2023/04/03 00:03:17;;;;;;;1.33;0.90;;;6.00;99.90;;;;;;5035560;28;20541;-52
2023/04/03 00:05:46;;;;;;;1.00;0.63;;;5.90;99.90;;;;;;5035043;28;20531;-51
2023/04/03 00:08:13;;;;;;;1.00;0.70;;;5.70;99.90;;;;;;5035323;28;20842;-52
2023/04/03 00:10:40;;;;;;;0.90;0.60;;;5.60;99.90;;;;;;5034742;28;20500;-53
2023/04/03 00:13:08;;;;;;;0.80;0.40;;;5.50;99.90;;;;;;5033923;28;20491;-53
2023/04/03 00:15:36;;;;;;;0.90;0.70;;;5.40;99.90;;;;;;5035254;28;20535;-51
2023/04/03 00:18:03;;;;;;;0.80;0.50;;;5.50;99.90;;;;;;5035343;28;20535;-51
2023/04/03 00:20:30;;;;;;;1.00;0.60;;;5.50;99.90;;;;;;5034553;28;20967;-52
2023/04/03 00:22:59;;;;;;;0.90;0.60;;;5.60;99.90;;;;;;5033660;28;20867;-50
2023/04/03 00:25:26;;;;;;;0.90;0.60;;;5.70;99.90;;;;;;5034642;28;20492;-50
2023/04/03 00:27:53;;;;;;;0.90;0.50;;;5.70;99.90;;;;;;5034925;28;20498;-60
2023/04/03 00:30:21;;;;;;;0.90;0.53;;;5.70;99.90;;;;;;5034283;28;20573;-50
2023/04/03 00:32:49;;;;;;;1.00;0.80;;;5.80;99.90;;;;;;5034415;28;20473;-53
2023/04/03 00:35:16;;;;;;;1.10;0.70;;;5.90;99.90;;;;;;5033443;28;20522;-51
2023/04/03 00:37:43;;;;;;;1.10;1.00;;;5.80;99.90;;;;;;5034419;28;20878;-51
2023/04/03 00:40:13;;;;;;;1.10;1.00;;;5.90;99.90;;;;;;5032877;28;20489;-51
2023/04/03 00:42:41;;;;;;;1.30;1.17;;;5.80;99.90;;;;;;5033251;28;20476;-51
2023/04/03 00:45:33;;;;;;;1.20;1.00;;;5.90;99.90;;;;;;5032448;28;20485;-50
2023/04/03 00:48:02;;;;;;;1.33;1.20;;;6.00;99.90;;;;;;5033871;28;20474;-52
2023/04/03 00:50:30;;;;;;;1.30;1.10;;;5.80;99.90;;;;;;5033653;28;20441;-52
2023/04/03 00:52:58;;;;;;;2.07;1.50;;;5.80;99.90;;;;;;5033525;28;20473;-51
2023/04/03 00:55:26;;;;;;;1.40;1.13;;;5.80;99.90;;;;;;5033285;28;20488;-51
2023/04/03 00:57:55;;;;;;;1.33;1.00;;;5.90;99.90;;;;;;5033864;28;20537;-54
2023/04/03 01:00:24;;;;;;;2.40;1.10;;;5.80;99.90;;;;;;5033233;28;20501;-53
2023/04/03 01:02:52;;;;;;;1.57;1.33;;;5.80;99.90;;;;;;5033127;28;20478;-52
2023/04/03 01:05:21;;;;;;;1.90;1.70;;;5.70;99.90;;;;;;5031876;28;20481;-52
2023/04/03 01:07:49;;;;;;;1.47;1.03;;;5.70;99.90;;;;;;5032868;28;20470;-53
2023/04/03 01:10:19;;;;;;;1.90;0.90;;;5.60;99.90;;;;;;5032541;28;20548;-53
2023/04/03 01:12:50;;;;;;;1.60;1.50;;;5.60;99.90;;;;;;5032723;28;20574;-56
2023/04/03 01:15:19;;;;;;;1.30;1.20;;;5.60;99.90;;;;;;5033232;28;20474;-51
2023/04/03 01:17:48;;;;;;;1.90;1.30;;;5.70;99.90;;;;;;5032944;28;20442;-54
2023/04/03 01:20:36;;;;;;;1.77;1.57;;;5.60;99.90;;;;;;5032862;28;20462;-52
2023/04/03 01:23:13;;;;;;;1.20;1.10;;;5.70;99.90;;;;;;5032739;28;20450;-52
2023/04/03 01:25:42;;;;;;;1.40;1.10;;;5.60;99.90;;;;;;5032956;28;20478;-53
2023/04/03 01:28:13;;;;;;;2.03;1.70;;;5.60;99.90;;;;;;5032328;28;20446;-51
2023/04/03 01:30:46;;;;;;;1.47;1.33;;;5.70;99.90;;;;;;5032438;28;20448;-52
2023/04/03 01:33:14;;;;;;;1.67;1.47;;;5.70;99.90;;;;;;5032220;28;20529;-52
2023/04/03 01:35:41;;;;;;;1.30;1.20;;;5.70;99.90;;;;;;5031870;28;20450;-53
2023/04/03 01:38:08;;;;;;;1.53;1.40;;;5.60;99.90;;;;;;5033704;28;20450;-53
2023/04/03 01:40:35;;;;;;;1.93;1.57;;;5.70;99.90;;;;;;5035429;28;20484;-52
2023/04/03 01:43:02;;;;;;;2.10;1.67;;;5.70;99.90;;;;;;5032776;28;20509;-52
2023/04/03 01:45:29;;;;;;;3.20;2.00;;;5.70;99.90;;;;;;5033176;28;20470;-52
2023/04/03 01:47:56;;;;;;;1.60;1.40;;;5.60;99.90;;;;;;5034597;28;20450;-52
2023/04/03 01:50:25;;;;;;;1.50;1.40;;;5.50;99.90;;;;;;5033483;28;20864;-51
2023/04/03 01:52:52;;;;;;;1.47;1.37;;;5.40;99.90;;;;;;5033646;28;20568;-52
2023/04/03 01:55:19;;;;;;;2.60;1.80;;;5.40;99.90;;;;;;5034181;28;20957;-53
2023/04/03 01:57:46;;;;;;;2.33;1.67;;;5.40;99.90;;;;;;5035917;28;21022;-51
2023/04/03 02:00:14;;;;;;;1.90;1.70;;;5.40;99.90;;;;;;5036314;28;20497;-54
2023/04/03 02:02:40;;;;;;;2.00;1.80;;;5.40;99.90;;;;;;5035958;28;20482;-53
2023/04/03 02:05:08;;;;;;;2.70;2.20;;;5.40;99.90;;;;;;5035735;28;20992;-52
2023/04/03 02:07:36;;;;;;;2.33;1.70;;;5.50;99.90;;;;;;5035774;28;20528;-51
2023/04/03 02:10:04;;;;;;;5.43;1.90;;;5.40;99.90;;;;;;5035655;28;20512;-51
2023/04/03 02:12:31;;;;;;;2.97;2.77;;;5.30;99.90;;;;;;5035864;28;20996;-52
2023/04/03 02:14:58;;;;;;;3.20;2.90;;;5.30;99.90;;;;;;5035608;28;20537;-51
2023/04/03 02:17:25;;;;;;;1.90;1.70;;;5.20;99.90;;;;;;5036060;28;20532;-51
2023/04/03 02:19:51;;;;;;;2.40;1.90;;;5.20;99.90;;;;;;5036256;28;21046;-52
2023/04/03 02:22:19;;;;;;;2.37;1.70;;;5.20;99.90;;;;;;5035684;28;20469;-51
2023/04/03 02:24:48;;;;;;;2.80;2.27;;;5.20;99.90;;;;;;5035821;28;20476;-51
2023/04/03 02:27:15;;;;;;;2.70;2.50;;;5.10;99.90;;;;;;5036366;28;20470;-51
2023/04/03 02:29:42;;;;;;;2.90;1.90;;;5.10;99.90;;;;;;5024109;28;20470;-51
2023/04/03 02:32:09;;;;;;;2.50;1.90;;;5.20;99.90;;;;;;5035435;28;20506;-51
2023/04/03 02:34:36;;;;;;;2.40;2.20;;;5.10;99.90;;;;;;5035415;28;20484;-53
2023/04/03 02:37:03;;;;;;;2.00;1.80;;;5.10;99.90;;;;;;5036386;28;20875;-52
2023/04/03 02:39:30;;;;;;;2.10;1.90;;;4.90;99.90;;;;;;5035343;28;20551;-52
2023/04/03 02:41:58;;;;;;;2.40;2.07;;;5.00;99.90;;;;;;5035507;28;20521;-53
2023/04/03 02:44:25;;;;;;;2.50;2.27;;;4.80;99.90;;;;;;5035811;28;20527;-52
2023/04/03 02:46:52;;;;;;;4.00;2.33;;;4.80;99.90;;;;;;5035168;28;20967;-54
2023/04/03 02:49:19;;;;;;;2.73;1.87;;;4.90;99.90;;;;;;5035100;28;20493;-51
2023/04/03 02:51:47;;;;;;;2.37;1.93;;;4.80;99.90;;;;;;5033820;28;20476;-52
2023/04/03 02:54:14;;;;;;;2.40;2.20;;;4.60;99.90;;;;;;5035320;28;20449;-51
2023/04/03 02:56:41;;;;;;;2.60;1.73;;;4.50;99.90;;;;;;5035510;28;20522;-52
2023/04/03 02:59:09;;;;;;;2.63;2.13;;;4.50;99.90;;;;;;5035603;28;20486;-51
2023/04/03 03:01:36;;;;;;;2.20;1.80;;;4.50;99.90;;;;;;5036227;28;20453;-52
2023/04/03 03:04:03;;;;;;;2.00;1.80;;;4.40;99.90;;;;;;5036317;28;20464;-52
2023/04/03 03:06:30;;;;;;;2.57;2.37;;;4.40;99.90;;;;;;5036449;28;20895;-51
2023/04/03 03:08:57;;;;;;;2.33;2.13;;;4.40;99.90;;;;;;5036435;28;21034;-51
2023/04/03 03:11:24;;;;;;;2.73;2.43;;;4.50;99.90;;;;;;5036837;28;20543;-52
2023/04/03 03:13:51;;;;;;;2.60;2.13;;;4.60;99.90;;;;;;5035919;28;20452;-51
2023/04/03 03:16:20;;;;;;;3.30;3.00;;;4.60;99.90;;;;;;5036838;28;20449;-52
2023/04/03 03:18:47;;;;;;;3.00;2.23;;;4.50;99.90;;;;;;5036331;28;20500;-51
2023/04/03 03:21:14;;;;;;;3.03;2.57;;;4.50;99.90;;;;;;5035509;28;20441;-51
2023/04/03 03:23:41;;;;;;;3.53;2.20;;;4.60;99.90;;;;;;5036330;28;20510;-51
2023/04/03 03:26:10;;;;;;;2.97;2.67;;;4.30;99.90;;;;;;5036560;28;20516;-51
2023/04/03 03:28:38;;;;;;;1.80;1.70;;;4.30;99.90;;;;;;5036134;28;20497;-51
2023/04/03 03:31:06;;;;;;;4.27;2.30;;;4.30;99.90;;;;;;5036006;28;20488;-52
2023/04/03 03:33:34;;;;;;;2.10;1.90;;;4.20;99.90;;;;;;5036159;28;20511;-52
2023/04/03 03:36:01;;;;;;;2.50;2.20;;;4.30;99.90;;;;;;5035817;28;20477;-53
2023/04/03 03:38:28;;;;;;;2.23;1.67;;;4.10;99.90;;;;;;5036211;28;20490;-50
2023/04/03 03:40:55;;;;;;;2.50;2.30;;;4.30;99.90;;;;;;5035646;28;20984;-51
2023/04/03 03:43:22;;;;;;;2.20;2.00;;;4.40;99.90;;;;;;5035680;28;20436;-51
2023/04/03 03:45:52;;;;;;;2.70;2.50;;;4.40;99.90;;;;;;5035585;28;20477;-54
2023/04/03 03:48:19;;;;;;;2.40;2.20;;;4.30;99.90;;;;;;5035314;28;20451;-51
2023/04/03 03:50:48;;;;;;;3.43;2.57;;;4.40;99.90;;;;;;5036082;28;20452;-52
2023/04/03 03:53:15;;;;;;;3.17;2.53;;;4.50;99.90;;;;;;5035118;28;20675;-51
2023/04/03 03:55:42;;;;;;;2.80;2.60;;;4.50;99.90;;;;;;5035135;28;20481;-50
2023/04/03 03:58:10;;;;;;;2.87;2.50;;;4.60;99.90;;;;;;5034440;28;20483;-51
2023/04/03 04:00:37;;;;;;;3.07;2.43;;;4.70;99.90;;;;;;5034981;28;20474;-51
2023/04/03 04:03:04;;;;;;;3.17;2.87;;;4.70;99.90;;;;;;5033894;28;20476;-52
2023/04/03 04:05:31;;;;;;;4.00;3.40;;;4.50;99.90;;;;;;5034646;28;20511;-52
2023/04/03 04:08:00;;;;;;;4.03;2.50;;;4.60;99.90;;;;;;5034028;28;21032;-51
2023/04/03 04:10:27;;;;;;;2.80;2.60;;;4.50;99.90;;;;;;5034632;28;20535;-51
2023/04/03 04:12:53;;;;;;;2.67;2.13;;;4.60;99.90;;;;;;5034019;28;20556;-51
2023/04/03 04:15:21;;;;;;;3.43;3.03;;;4.60;99.90;;;;;;5034641;28;20480;-50
2023/04/03 04:17:48;;;;;;;2.60;2.40;;;4.70;99.90;;;;;;5034564;28;20445;-50
2023/04/03 04:20:15;;;;;;;3.17;2.87;;;4.70;99.90;;;;;;5033790;28;20492;-50
2023/04/03 04:22:42;;;;;;;3.57;3.20;;;4.60;99.90;;;;;;5034510;28;20447;-51
2023/04/03 04:25:11;;;;;;;3.60;3.30;;;4.60;99.90;;;;;;5033801;28;20477;-52
2023/04/03 04:27:38;;;;;;;3.00;2.60;;;4.50;99.90;;;;;;5034105;28;20536;-51
2023/04/03 04:30:06;;;;;;;2.50;2.30;;;4.50;99.90;;;;;;5031860;28;20545;-51
2023/04/03 04:32:33;;;;;;;3.87;3.57;;;4.50;99.90;;;;;;5032124;28;20477;-51
2023/04/03 04:35:00;;;;;;;3.13;2.73;;;4.70;99.90;;;;;;5032084;28;20817;-52
2023/04/03 04:37:27;;;;;;;3.53;2.30;;;4.60;99.90;;;;;;5033541;28;21119;-50
2023/04/03 04:39:54;;;;;;;2.63;2.43;;;4.60;99.90;;;;;;5033400;28;20547;-51
2023/04/03 04:42:23;;;;;;;3.10;2.80;;;4.60;99.90;;;;;;5050435;28;21008;-51
2023/04/03 04:44:50;;;;;;;3.53;2.73;;;4.60;99.90;;;;;;5033748;28;20548;-50
2023/04/03 04:47:17;;;;;;;3.80;3.40;;;4.60;99.90;;;;;;5034216;28;20477;-51
2023/04/03 04:49:43;;;;;;;5.97;4.93;;;4.50;99.90;;;;;;5034182;28;20545;-53
2023/04/03 04:52:10;;;;;;;5.03;4.20;;;4.50;99.90;;;;;;5039497;28;20474;-52
2023/04/03 04:54:37;;;;;;;3.70;3.40;;;4.20;99.90;;;;;;5034066;28;20477;-51
2023/04/03 04:57:04;;;;;;;5.00;3.60;;;4.20;99.90;;;;;;5034509;28;20445;-51
2023/04/03 04:59:34;;;;;;;4.67;3.80;;;4.30;99.90;;;;;;5033897;28;20467;-50
2023/04/03 05:02:01;;;;;;;3.57;3.00;;;4.30;99.90;;;;;;5041109;28;20515;-51
2023/04/03 05:04:28;;;;;;;4.50;4.00;;;4.30;99.90;;;;;;5040651;28;20483;-52
2023/04/03 05:06:55;;;;;;;4.80;3.90;;;4.40;99.90;;;;;;5038442;28;20444;-52
2023/04/03 05:09:22;;;;;;;4.87;3.43;;;4.50;99.90;;;;;;5041546;28;20906;-51
2023/04/03 05:11:49;;;;;;;4.13;3.50;;;4.50;99.90;;;;;;5038383;28;20517;-53
2023/04/03 05:14:16;;;;;;;4.90;4.10;;;4.50;99.90;;;;;;5034610;28;20524;-52
2023/04/03 05:16:44;;;;;;;4.07;3.67;;;4.40;99.90;;;;;;5049151;28;20986;-53
2023/04/03 05:19:11;;;;;;;3.73;3.20;;;4.40;99.90;;;;;;5042495;28;20499;-49
2023/04/03 05:21:38;;;;;;;4.20;3.70;;;4.30;99.90;;;;;;5036144;28;20503;-51
2023/04/03 05:24:08;;;;;;;4.67;3.63;;;4.20;99.90;;;;;;5037969;28;20528;-50
2023/04/03 05:26:35;;;;;;;3.90;3.33;;;4.30;99.90;;;;;;5048418;28;20441;-49
2023/04/03 05:29:02;;;;;;;6.90;5.77;;;4.40;99.90;;;;;;5043456;28;20544;-51
2023/04/03 05:31:30;;;;;;;9.27;6.73;;;4.50;99.90;;;;;;5049960;28;20439;-51
2023/04/03 05:33:58;;;;;;;5.97;4.43;;;4.50;99.90;;;;;;5056660;28;20559;-51
2023/04/03 05:36:26;;;;;;;4.50;4.07;;;4.50;99.90;;;;;;5057037;28;20938;-50
2023/04/03 05:38:53;;;;;;;4.70;3.57;;;4.50;99.90;;;;;;5056868;28;20452;-50
2023/04/03 05:41:21;;;;;;;4.53;4.10;;;4.50;99.90;;;;;;5056672;28;20539;-50
2023/04/03 05:43:48;;;;;;;4.90;3.90;;;4.60;99.90;;;;;;5056337;28;20531;-52
2023/04/03 05:46:20;;;;;;;4.30;3.90;;;4.60;99.90;;;;;;5055966;28;20491;-50
2023/04/03 05:48:47;;;;;;;4.90;4.40;;;4.40;99.90;;;;;;5055783;28;20467;-50
2023/04/03 05:51:18;;;;;;;5.13;4.60;;;4.40;99.90;;;;;;5047469;28;20480;-50
2023/04/03 05:53:46;;;;;;;5.03;3.83;;;4.60;99.90;;;;;;5054507;28;20519;-52
2023/04/03 05:56:13;;;;;;;5.50;4.47;;;4.70;99.90;;;;;;5055923;28;20445;-50
2023/04/03 05:58:40;;;;;;;5.10;4.60;;;4.70;99.90;;;;;;5057122;28;20467;-50
2023/04/03 06:01:07;;;;;;;5.47;4.20;;;4.70;99.90;;;;;;5056432;28;20546;-50
2023/04/03 06:03:34;;;;;;;4.80;4.30;;;4.70;99.90;;;;;;5056808;28;20444;-50
2023/04/03 06:06:04;;;;;;;5.73;4.93;;;4.50;99.90;;;;;;5056407;28;20454;-50
2023/04/03 06:08:32;;;;;;;6.60;5.00;;;4.50;99.90;;;;;;5056712;28;20464;-51
2023/04/03 06:10:59;;;;;;;4.83;4.33;;;4.60;99.90;;;;;;5056392;28;20438;-52
2023/04/03 06:13:26;;;;;;;8.83;4.63;;;4.60;99.90;;;;;;5055146;28;20490;-51
2023/04/03 06:15:53;;;;;;;5.40;4.43;;;4.50;99.90;;;;;;5055708;28;20546;-51
2023/04/03 06:18:20;;;;;;;4.87;4.13;;;4.60;99.90;;;;;;5055853;28;20515;-50
2023/04/03 06:20:47;;;;;;;5.23;4.43;;;4.60;99.90;;;;;;5056651;28;20507;-51
2023/04/03 06:23:14;;;;;;;5.77;4.70;;;4.60;99.90;;;;;;5054313;28;20484;-51
2023/04/03 06:25:42;;;;;;;5.27;4.77;;;4.70;99.90;;;;;;5055094;28;20927;-52
2023/04/03 06:28:10;;;;;;;5.00;4.50;;;4.70;99.90;;;;;;5056568;28;20467;-53
2023/04/03 06:30:37;;;;;;;5.20;4.70;;;4.80;99.90;;;;;;5056723;28;20474;-51
2023/04/03 06:33:04;;;;;;;5.40;4.67;;;4.70;99.90;;;;;;5056261;28;21102;-52
2023/04/03 06:35:31;;;;;;;5.20;4.43;;;4.70;99.90;;;;;;5055491;28;20951;-51
2023/04/03 06:37:58;;;;;;;5.40;4.90;;;4.80;99.90;;;;;;5055928;28;20526;-53
2023/04/03 06:40:27;;;;;;;7.07;5.60;;;4.70;99.90;;;;;;5055712;28;20500;-51
2023/04/03 06:42:55;;;;;;;6.73;5.60;;;4.70;99.90;;;;;;5055620;28;20441;-53
2023/04/03 06:45:22;;;;;;;5.77;5.00;;;4.80;99.90;;;;;;5055675;28;20528;-50
2023/04/03 06:47:49;;;;;;;5.57;4.97;;;4.80;99.90;;;;;;5056201;28;20919;-50
2023/04/03 06:50:16;;;;;;;6.23;4.83;;;4.90;99.90;;;;;;5055469;28;20533;-51
2023/04/03 06:52:43;;;;;;;5.07;4.67;;;5.00;99.90;;;;;;5055466;28;20483;-51
2023/04/03 06:55:11;;;;;;;5.17;4.77;;;5.00;99.90;;;;;;5055100;28;20538;-54
2023/04/03 06:57:38;;;;;;;6.53;5.73;;;5.00;99.90;;;;;;5055479;28;20449;-51
2023/04/03 07:00:09;;;;;;;6.53;5.23;;;5.10;99.90;;;;;;5054571;28;20518;-52
2023/04/03 07:02:36;;;;;;;6.40;5.47;;;5.20;99.90;;;;;;5054669;28;21041;-52
2023/04/03 07:05:04;;;;;;;5.53;5.03;;;5.20;99.90;;;;;;5054481;28;20531;-51
2023/04/03 07:07:31;;;;;;;7.83;4.80;;;5.20;99.90;;;;;;5055695;28;20450;-58
2023/04/03 07:09:58;;;;;;;5.47;4.23;;;5.10;99.90;;;;;;5055346;28;20555;-51
2023/04/03 07:12:25;;;;;;;3.97;2.90;;;5.20;99.90;;;;;;5054942;28;20540;-53
2023/04/03 07:14:52;;;;;;;3.57;3.27;;;5.20;99.90;;;;;;5053702;28;20610;-51
2023/04/03 07:17:20;;;;;;;7.10;4.60;;;5.30;99.90;;;;;;5053189;28;20536;-54
2023/04/03 07:19:47;;;;;;;7.93;5.97;;;5.20;99.90;;;;;;5052095;28;20553;-54
2023/04/03 07:22:14;;;;;;;7.30;4.60;;;5.40;99.90;;;;;;5052335;28;20885;-52
2023/04/03 07:24:41;;;;;;;4.90;4.10;;;5.50;99.90;;;;;;5052697;28;20983;-52
2023/04/03 07:27:08;;;;;;;4.97;4.47;;;5.40;99.90;;;;;;5053776;28;20480;-51
2023/04/03 07:29:36;;;;;;;4.47;3.67;;;5.50;99.90;;;;;;5053413;28;20850;-51
2023/04/03 07:32:03;;;;;;;5.23;4.40;;;5.40;99.90;;;;;;5053585;28;20484;-51
2023/04/03 07:34:32;;;;;;;3.40;3.10;;;5.40;99.90;;;;;;5053696;28;20491;-52
2023/04/03 07:36:59;;;;;;;3.90;3.50;;;5.40;99.90;;;;;;5054025;28;20449;-51
2023/04/03 07:39:27;;;;;;;3.50;3.20;;;5.40;99.90;;;;;;5054917;28;20471;-53
2023/04/03 07:41:55;;;;;;;4.60;3.17;;;5.10;99.90;;;;;;5054527;28;20459;-52
2023/04/03 07:44:22;;;;;;;3.93;3.53;;;4.90;99.90;;;;;;5054562;28;20440;-52
2023/04/03 07:46:50;;;;;;;7.13;4.77;;;5.10;99.90;;;;;;5053397;28;20510;-52
2023/04/03 07:49:17;;;;;;;5.23;4.73;;;5.30;99.90;;;;;;5053860;28;20466;-51
2023/04/03 07:51:46;;;;;;;6.20;4.30;;;5.20;99.90;;;;;;5054072;28;20461;-49
2023/04/03 07:54:13;;;;;;;6.73;5.70;;;5.40;99.90;;;;;;5053995;28;20478;-48
2023/04/03 07:56:40;;;;;;;7.03;6.33;;;5.40;99.90;;;;;;5053428;28;20492;-49
2023/04/03 07:59:07;;;;;;;6.97;6.00;;;5.40;99.90;;;;;;5053110;28;20471;-48
2023/04/03 08:01:34;;;;;;;10.00;4.83;;;5.50;99.90;;;;;;5052724;28;20446;-50
2023/04/03 08:04:01;;;;;;;6.20;5.30;;;5.30;99.90;;;;;;5053563;28;20528;-49
2023/04/03 08:06:29;;;;;;;6.03;5.43;;;5.40;99.90;;;;;;5036260;28;20538;-49
2023/04/03 08:08:58;;;;;;;6.67;5.30;;;5.40;99.90;;;;;;5023878;28;20875;-49
2023/04/03 08:11:26;;;;;;;6.20;5.27;;;5.60;99.90;;;;;;5032708;28;20469;-48
2023/04/03 08:13:53;;;;;;;6.73;4.53;;;5.50;99.90;;;;;;5031886;28;20850;-50
2023/04/03 08:16:23;;;;;;;5.87;4.83;;;5.70;99.90;;;;;;5032469;28;20444;-49
2023/04/03 08:18:50;;;;;;;7.47;4.93;;;5.50;99.90;;;;;;5032645;28;20464;-49
2023/04/03 08:21:17;;;;;;;5.20;4.70;;;5.70;99.90;;;;;;5032483;28;20482;-50
2023/04/03 08:23:44;;;;;;;5.50;4.63;;;5.70;99.90;;;;;;5032470;28;21117;-50
2023/04/03 08:26:14;;;;;;;4.47;4.00;;;5.70;99.90;;;;;;5033031;28;20528;-50
2023/04/03 08:28:41;;;;;;;6.33;4.63;;;5.60;99.90;;;;;;5032960;28;20497;-51
2023/04/03 08:31:11;;;;;;;7.63;5.50;;;5.60;99.90;;;;;;5033307;28;20502;-49
2023/04/03 08:33:38;;;;;;;6.33;5.07;;;5.60;99.90;;;;;;5032527;28;20495;-50
2023/04/03 08:36:07;;;;;;;6.80;5.43;;;5.70;99.90;;;;;;5032887;28;20542;-50
2023/04/03 08:38:36;;;;;;;4.20;3.73;;;5.60;99.90;;;;;;5032532;28;20564;-50
2023/04/03 08:41:15;;;;;;;3.87;3.50;;;5.80;99.90;;;;;;5032911;28;20465;-49
2023/04/03 08:43:57;;;;;;;4.33;3.87;;;5.60;99.90;;;;;;5033486;28;20447;-50
2023/04/03 08:46:45;;;;;;;4.13;3.73;;;5.40;99.90;;;;;;5033111;28;20453;-50
2023/04/03 08:49:19;;;;;;;2.63;2.30;;;5.70;99.90;;;;;;5036565;28;20461;-49
2023/04/03 08:51:49;;;;;;;4.00;3.40;;;5.60;99.90;;;;;;5037487;28;20537;-49
2023/04/03 08:54:28;;;;;;;4.67;3.87;;;5.20;99.90;;;;;;5036340;28;20508;-50
2023/04/03 08:56:58;;;;;;;5.30;4.40;;;5.30;99.90;;;;;;5037607;28;20664;-49
2023/04/03 08:59:30;;;;;;;5.63;4.60;;;5.60;99.90;;;;;;5037948;28;20527;-51
2023/04/03 09:01:59;;;;;;;3.83;3.43;;;5.60;99.90;;;;;;5037792;28;20491;-50
2023/04/03 09:04:28;;;;;;;5.03;4.53;;;5.50;99.90;;;;;;5037224;28;20540;-49
2023/04/03 09:07:02;;;;;;;8.50;4.47;;;5.80;99.90;;;;;;5037962;28;20505;-49
2023/04/03 09:09:35;;;;;;;4.80;3.97;;;5.60;99.90;;;;;;5037434;28;20998;-49
2023/04/03 09:12:12;;;;;;;4.30;3.90;;;5.40;99.90;;;;;;5035542;28;20480;-51
2023/04/03 09:14:43;;;;;;;5.13;3.63;;;5.30;99.90;;;;;;5035115;28;20516;-51
2023/04/03 09:17:16;;;;;;;3.70;3.27;;;5.40;99.90;;;;;;5037228;28;20485;-50
2023/04/03 09:19:51;;;;;;;3.43;3.10;;;5.40;99.90;;;;;;5037407;28;20472;-52
2023/04/03 09:22:21;;;;;;;3.40;3.00;;;5.40;99.90;;;;;;5035531;28;20457;-51
2023/04/03 09:24:53;;;;;;;3.80;3.40;;;5.20;99.90;;;;;;5036339;28;20487;-52
2023/04/03 09:27:21;;;;;;;4.47;3.40;;;5.40;99.90;;;;;;5035969;28;20536;-52
2023/04/03 09:29:49;;;;;;;4.40;3.50;;;5.40;99.90;;;;;;5036515;28;20494;-51
2023/04/03 09:32:25;;;;;;;3.60;3.27;;;5.30;99.90;;;;;;5035781;28;20877;-56
2023/04/03 09:34:54;;;;;;;3.20;2.87;;;5.30;99.90;;;;;;5035635;28;20511;-52
2023/04/03 09:37:43;;;;;;;3.70;3.40;;;5.30;99.90;;;;;;5035546;28;20520;-50
2023/04/03 09:40:30;;;;;;;3.80;3.20;;;5.50;99.90;;;;;;5032111;28;20463;-50
2023/04/03 09:43:00;;;;;;;3.90;3.30;;;5.60;99.90;;;;;;5035281;28;20439;-51
2023/04/03 09:45:29;;;;;;;4.33;3.80;;;5.70;99.90;;;;;;5035499;28;20868;-50
2023/04/03 09:48:07;;;;;;;3.70;3.20;;;5.70;99.90;;;;;;5036012;28;20507;-49
2023/04/03 09:50:35;;;;;;;4.20;3.47;;;5.60;99.90;;;;;;5036103;28;20543;-50
2023/04/03 09:53:07;;;;;;;3.67;3.10;;;5.60;99.90;;;;;;5035182;28;20436;-49
2023/04/03 09:55:43;;;;;;;4.00;3.20;;;5.70;99.90;;;;;;5035522;28;20486;-49
2023/04/03 09:58:28;;;;;;;4.33;3.93;;;5.70;99.90;;;;;;5036161;28;20476;-49
2023/04/03 10:00:57;;;;;;;4.37;3.30;;;5.60;99.90;;;;;;5033936;28;20446;-51
2023/04/03 10:03:28;;;;;;;3.90;3.60;;;5.60;99.90;;;;;;5034660;28;20455;-51
2023/04/03 10:05:57;;;;;;;3.20;2.63;;;5.90;99.90;;;;;;5035270;28;20442;-50
2023/04/03 10:08:27;;;;;;;4.50;3.50;;;5.80;99.90;;;;;;5034131;28;20476;-50
2023/04/03 10:11:15;;;;;;;4.70;3.33;;;5.80;99.90;;;;;;5033531;28;20802;-49
2023/04/03 10:13:55;;;;;;;3.90;3.50;;;5.90;99.90;;;;;;5033524;28;20447;-50
2023/04/03 10:16:37;;;;;;;3.40;3.10;;;5.80;99.90;;;;;;5035889;28;20462;-50
2023/04/03 10:19:31;;;;;;;2.97;2.67;;;6.00;99.90;;;;;;5035091;28;20516;-50
2023/04/03 10:22:03;;;;;;;4.20;2.90;;;6.00;99.90;;;;;;5035335;28;21016;-50
2023/04/03 10:24:40;;;;;;;4.17;3.60;;;6.00;99.90;;;;;;5034534;28;20441;-50
2023/04/03 10:27:12;;;;;;;3.60;3.30;;;6.10;99.90;;;;;;5035243;28;20536;-50
2023/04/03 10:29:48;;;;;;;3.67;2.70;;;5.90;99.90;;;;;;5029171;28;20990;-50
2023/04/03 10:32:34;;;;;;;3.60;3.13;;;5.80;99.90;;;;;;5026686;28;20839;-49
2023/04/03 10:35:08;;;;;;;3.77;3.37;;;5.90;99.90;;;;;;5034623;28;20837;-51
2023/04/03 10:37:49;;;;;;;3.67;2.70;;;6.00;99.90;;;;;;5032223;28;20479;-50
2023/04/03 10:40:25;;;;;;;3.10;2.80;;;5.90;99.90;;;;;;5033968;28;20566;-51
2023/04/03 10:42:59;;;;;;;5.40;3.80;;;5.80;99.90;;;;;;5033176;28;20433;-52
2023/04/03 10:45:33;;;;;;;3.20;2.90;;;5.70;99.90;;;;;;5032283;28;20523;-51
2023/04/03 10:48:09;;;;;;;3.83;2.70;;;5.80;99.90;;;;;;5034467;28;20440;-51
2023/04/03 10:50:44;;;;;;;3.40;3.10;;;5.90;99.90;;;;;;5033929;28;20555;-51
2023/04/03 10:53:21;;;;;;;3.70;3.30;;;5.90;99.90;;;;;;5034150;28;20520;-51
2023/04/03 10:55:53;;;;;;;3.10;2.53;;;5.70;99.90;;;;;;5033541;28;20580;-52
2023/04/03 10:58:27;;;;;;;3.47;3.03;;;5.70;99.90;;;;;;5033585;28;20526;-49
2023/04/03 11:00:58;;;;;;;3.03;2.73;;;5.80;99.90;;;;;;5033548;28;20504;-50
2023/04/03 11:03:31;;;;;;;4.27;3.60;;;5.80;99.90;;;;;;5032177;28;20496;-51
2023/04/03 11:06:00;;;;;;;3.20;2.80;;;5.80;99.90;;;;;;5032514;28;20938;-58
2023/04/03 11:08:34;;;;;;;4.67;3.20;;;5.90;99.90;;;;;;5033313;28;20995;-50
2023/04/03 11:11:05;;;;;;;2.87;2.57;;;5.80;99.90;;;;;;5033075;28;20526;-52
2023/04/03 11:13:37;;;;;;;2.57;2.37;;;5.80;99.90;;;;;;5032839;28;20440;-51
2023/04/03 11:16:07;;;;;;;3.43;2.87;;;5.90;99.90;;;;;;5058582;22;20567;-47
2023/04/03 11:18:40;;;;;;;2.70;2.50;;;6.20;99.90;;;;;;5050448;28;20488;-47
2023/04/03 11:21:13;;;;;;;3.83;3.17;;;5.90;99.90;;;;;;5051554;28;20946;-48
2023/04/03 11:23:41;;;;;;;3.23;2.70;;;5.80;99.90;;;;;;5051217;28;20451;-47
2023/04/03 11:26:11;;;;;;;3.30;2.80;;;5.80;99.90;;;;;;5050371;28;20951;-50
2023/04/03 11:28:39;;;;;;;2.90;2.60;;;5.80;99.90;;;;;;5050633;28;20448;-46
2023/04/03 11:31:17;;;;;;;2.63;2.37;;;5.80;99.90;;;;;;5051198;28;20891;-47
2023/04/03 11:33:54;;;;;;;3.00;2.70;;;5.80;99.90;;;;;;5052236;28;20452;-50
2023/04/03 11:36:24;;;;;;;2.90;2.60;;;5.70;99.90;;;;;;5051335;28;20466;-49
2023/04/03 11:38:54;;;;;;;3.03;2.70;;;5.70;99.90;;;;;;5050353;28;20483;-47
2023/04/03 11:41:27;;;;;;;2.83;2.23;;;5.80;99.90;;;;;;5050538;28;20535;-48
2023/04/03 11:43:59;;;;;;;2.43;2.23;;;5.70;99.90;;;;;;5050311;28;20930;-48
2023/04/03 11:46:53;;;;;;;2.90;2.60;;;5.70;99.90;;;;;;5049803;28;20490;-47
2023/04/03 11:49:51;;;;;;;3.03;2.70;;;5.70;99.90;;;;;;5050702;28;20467;-48
2023/04/03 11:52:52;;;;;;;3.00;2.57;;;5.70;99.90;;;;;;5051468;28;20444;-48
2023/04/03 11:55:58;;;;;;;2.37;2.17;;;5.90;99.90;;;;;;5051173;28;20965;-48
2023/04/03 11:58:26;;;;;;;2.67;2.47;;;5.90;99.90;;;;;;5043143;28;20566;-47
2023/04/03 12:01:05;;;;;;;2.63;2.20;;;6.20;99.90;;;;;;5050973;28;20549;-50
2023/04/03 12:04:05;;;;;;;2.80;1.90;;;6.40;99.90;;;;;;5051086;28;20517;-48
2023/04/03 12:07:02;;;;;;;1.90;1.70;;;6.30;99.90;;;;;;5050435;28;20499;-49
2023/04/03 12:10:02;;;;;;;2.13;1.93;;;6.40;99.90;;;;;;5049862;28;20452;-49
2023/04/03 12:12:38;;;;;;;2.13;1.93;;;6.30;99.90;;;;;;5042516;28;20510;-49
2023/04/03 12:15:26;;;;;;;2.43;2.20;;;6.30;99.90;;;;;;5050230;28;20937;-48
2023/04/03 12:17:53;;;;;;;2.60;2.13;;;6.30;99.90;;;;;;5003007;28;20483;-49
2023/04/03 12:20:55;;;;;;;2.13;2.00;;;6.50;99.90;;;;;;5051136;28;20472;-47
2023/04/03 12:23:28;;;;;;;2.47;2.27;;;6.30;99.90;;;;;;5049460;28;20457;-47
2023/04/03 12:26:02;;;;;;;2.70;2.20;;;6.40;99.90;;;;;;5051195;28;20841;-47
2023/04/03 12:28:30;;;;;;;2.40;2.10;;;6.30;99.90;;;;;;5050713;28;20935;-47
2023/04/03 12:30:57;;;;;;;2.97;2.17;;;6.30;99.90;;;;;;5050925;28;20455;-47
2023/04/03 12:33:37;;;;;;;2.10;1.90;;;6.50;99.90;;;;;;5050470;28;20943;-47
2023/04/03 12:36:12;;;;;;;2.20;1.93;;;6.60;99.90;;;;;;5050774;28;20471;-47
2023/04/03 12:39:13;;;;;;;2.03;1.87;;;6.60;99.90;;;;;;5050684;28;21092;-48
2023/04/03 12:41:46;;;;;;;2.00;1.80;;;6.70;99.90;;;;;;5050522;28;20438;-48
2023/04/03 12:44:41;;;;;;;2.63;2.13;;;6.70;99.90;;;;;;5050677;28;20481;-50
2023/04/03 12:47:23;;;;;;;2.57;2.37;;;6.60;99.90;;;;;;5050517;28;20530;-49
2023/04/03 12:49:52;;;;;;;3.93;2.00;;;6.70;99.90;;;;;;5050605;28;20450;-48
2023/04/03 12:52:31;;;;;;;2.00;1.80;;;6.60;99.90;;;;;;5050741;28;20449;-47
2023/04/03 12:54:59;;;;;;;2.37;1.60;;;6.50;99.90;;;;;;5050500;28;20803;-49
2023/04/03 12:57:28;;;;;;;1.50;1.40;;;6.30;99.90;;;;;;5050551;28;21149;-47
2023/04/03 12:59:56;;;;;;;1.67;1.50;;;6.20;99.90;;;;;;5050610;28;20444;-49
2023/04/03 13:02:26;;;;;;;1.93;1.70;;;6.30;99.90;;;;;;5050220;28;20863;-49
2023/04/03 13:04:54;;;;;;;1.67;1.47;;;6.20;99.90;;;;;;5049771;28;20572;-51
2023/04/03 13:07:28;;;;;;;3.13;2.20;;;6.50;99.90;;;;;;5050608;28;20561;-50
2023/04/03 13:10:00;;;;;;;1.70;1.60;;;6.70;99.90;;;;;;5050368;28;20965;-49
2023/04/03 13:12:27;;;;;;;3.23;2.20;;;6.80;99.90;;;;;;5050268;28;20963;-48
2023/04/03 13:14:57;;;;;;;2.03;1.70;;;6.60;99.90;;;;;;5049738;28;20532;-48